Time;durP1;ratioP1;P1;durP2;ratioP2;P2;SDS_P1;SDS_P2;PMS_P1;PMS_P2;Temp;Humidity;BMP_temperature;BMP_pressure;BME280_temperature;BME280_humidity;BME280_pressure;Samples;Min_cycle;Max_cycle;Signal;HPM_P1;HPM_P2
2023/01/31 00:01:40;;;;;;;8.90;6.50;;;;;;;-0.14;78.65;97603.30;105498;1258;62074;-24
2023/01/31 00:04:13;;;;;;;7.90;5.20;;;;;;;-0.35;79.29;97604.02;105478;1258;62107;-24
2023/01/31 00:06:42;;;;;;;8.60;6.50;;;;;;;-0.54;79.89;97604.98;105350;1253;75399;-24
2023/01/31 00:09:13;;;;;;;9.10;6.00;;;;;;;-0.72;80.79;97609.80;105293;1260;75792;-24
2023/01/31 00:11:41;;;;;;;9.70;5.60;;;;;;;-0.76;81.64;97614.63;105572;1253;73232;-24
2023/01/31 00:14:13;;;;;;;7.40;5.00;;;;;;;-0.29;80.55;97616.67;105589;1258;61232;-25
2023/01/31 00:16:42;;;;;;;7.90;4.90;;;;;;;-0.07;79.24;97611.04;105666;1260;62352;-25
2023/01/31 00:19:10;;;;;;;9.90;5.60;;;;;;;-0.09;78.77;97609.61;105713;1256;75139;-25
2023/01/31 00:21:42;;;;;;;8.10;5.80;;;;;;;-0.28;79.38;97602.60;105677;1253;75824;-25
2023/01/31 00:24:12;;;;;;;10.40;6.90;;;;;;;-0.49;80.21;97604.17;105652;1253;73211;-25
2023/01/31 00:26:41;;;;;;;9.30;5.20;;;;;;;-0.68;81.02;97605.65;105352;1258;61624;-25
2023/01/31 00:29:10;;;;;;;9.60;5.80;;;;;;;-0.57;81.51;97611.66;105326;1253;61877;-26
2023/01/31 00:31:38;;;;;;;7.60;4.90;;;;;;;-0.07;80.13;97612.10;105511;1253;75349;-26
2023/01/31 00:34:07;;;;;;;8.80;5.50;;;;;;;0.10;79.05;97610.55;105495;1253;74850;-25
2023/01/31 00:36:37;;;;;;;11.80;6.30;;;;;;;-0.03;79.26;97606.39;105380;1253;73178;-25
2023/01/31 00:39:09;;;;;;;10.90;6.70;;;;;;;-0.21;79.69;97609.52;105345;1253;61470;-25
2023/01/31 00:41:38;;;;;;;13.20;7.30;;;;;;;-0.42;80.52;97615.00;105384;1258;61874;-26
2023/01/31 00:44:07;;;;;;;9.90;6.80;;;;;;;-0.62;81.47;97616.20;105593;1253;75409;-26
2023/01/31 00:46:37;;;;;;;9.40;5.90;;;;;;;-0.44;81.87;97617.16;105732;1253;75357;-26
2023/01/31 00:49:06;;;;;;;8.60;5.80;;;;;;;0.14;80.67;97612.35;105503;1255;74676;-25
2023/01/31 00:51:36;;;;;;;8.10;5.30;;;;;;;0.22;79.23;97613.73;105362;1258;61824;-24
2023/01/31 00:54:05;;;;;;;9.90;5.20;;;;;;;0.09;79.46;97614.17;105752;1257;61853;-25
2023/01/31 00:56:34;;;;;;;9.70;6.50;;;;;;;-0.10;80.11;97617.92;105394;1253;74382;-25
2023/01/31 00:59:07;;;;;;;11.20;6.30;;;;;;;-0.33;81.08;97630.02;105480;1253;75619;-25
2023/01/31 01:01:37;;;;;;;7.30;4.00;;;;;;;-0.53;82.27;97625.70;105347;1256;73918;-25
2023/01/31 01:04:05;;;;;;;9.80;6.60;;;;;;;-0.22;82.02;97624.58;105508;1258;61161;-25
2023/01/31 01:06:37;;;;;;;11.00;6.50;;;;;;;0.24;80.24;97630.48;105497;1258;61863;-25
2023/01/31 01:09:05;;;;;;;10.00;6.70;;;;;;;0.27;79.40;97631.17;105134;1261;74124;-25
2023/01/31 01:11:35;;;;;;;11.30;6.70;;;;;;;0.13;79.76;97630.31;105603;1256;75555;-25
2023/01/31 01:14:03;;;;;;;10.10;6.60;;;;;;;-0.08;80.28;97630.54;105242;1253;74275;-25
2023/01/31 01:16:34;;;;;;;12.40;8.30;;;;;;;-0.24;80.98;97630.48;105389;1256;61232;-25
2023/01/31 01:19:05;;;;;;;8.90;5.50;;;;;;;-0.39;81.90;97627.13;105216;1254;61656;-25
2023/01/31 01:21:39;;;;;;;11.30;6.50;;;;;;;0.02;81.26;97631.02;105268;1253;75588;-25
2023/01/31 01:24:11;;;;;;;12.00;6.20;;;;;;;0.52;79.35;97634.77;105472;1255;75128;-25
2023/01/31 01:26:40;;;;;;;9.40;6.50;;;;;;;0.48;78.62;97633.63;105154;1253;74260;-25
2023/01/31 01:29:09;;;;;;;12.80;8.00;;;;;;;0.29;78.81;97629.35;105482;1258;61187;-25
2023/01/31 01:31:38;;;;;;;13.20;8.30;;;;;;;0.13;79.28;97636.66;105325;1258;61508;-25
2023/01/31 01:34:10;;;;;;;10.00;6.40;;;;;;;-0.01;79.58;97636.31;105332;1259;75286;-25
2023/01/31 01:36:39;;;;;;;17.20;7.80;;;;;;;-0.19;80.32;97638.89;105377;1256;75239;-25
2023/01/31 01:39:10;;;;;;;8.60;5.70;;;;;;;0.07;80.08;97637.70;105479;1253;73944;-25
2023/01/31 01:41:39;;;;;;;9.40;6.10;;;;;;;0.81;78.68;97635.64;105338;1253;61128;-25
2023/01/31 01:44:46;;;;;;;11.30;5.90;;;;;;;1.00;77.30;97636.14;105322;1258;61276;-25
2023/01/31 01:47:21;;;;;;;11.00;6.20;;;;;;;0.82;77.24;97639.89;105620;1253;75430;-25
2023/01/31 01:49:53;;;;;;;8.30;6.10;;;;;;;0.49;77.59;97641.91;105721;1254;74690;-24
2023/01/31 01:52:22;;;;;;;9.70;6.60;;;;;;;0.26;78.23;97651.70;105351;1260;74461;-25
2023/01/31 01:55:21;;;;;;;11.10;7.10;;;;;;;0.05;79.06;97655.85;105304;1253;61200;-25
2023/01/31 01:57:53;;;;;;;8.50;5.10;;;;;;;-0.15;79.64;97654.67;105625;1256;61895;-25
2023/01/31 02:00:25;;;;;;;10.20;6.00;;;;;;;0.29;79.75;97653.59;105676;1254;75357;-25
2023/01/31 02:02:58;;;;;;;8.40;5.50;;;;;;;0.86;78.23;97657.22;105634;1261;76144;-25
2023/01/31 02:05:32;;;;;;;9.70;5.80;;;;;;;0.98;77.56;97656.15;105594;1253;74519;-24
2023/01/31 02:08:01;;;;;;;12.20;5.90;;;;;;;0.80;77.43;97665.45;105574;1260;61156;-25
2023/01/31 02:10:37;;;;;;;10.90;7.40;;;;;;;0.52;77.84;97662.78;105342;1258;61802;-24
2023/01/31 02:13:06;;;;;;;8.10;5.70;;;;;;;0.18;78.83;97662.08;105355;1258;75315;-25
2023/01/31 02:15:35;;;;;;;8.60;4.30;;;;;;;-0.07;79.72;97662.59;105525;1253;75676;-25
2023/01/31 02:18:05;;;;;;;9.90;6.10;;;;;;;-0.19;80.62;97659.86;105369;1253;73937;-24
2023/01/31 02:21:12;;;;;;;11.00;6.20;;;;;;;0.30;79.98;97658.48;105294;1260;61031;-25
2023/01/31 02:24:21;;;;;;;11.60;7.20;;;;;;;0.66;78.40;97659.35;105633;1258;61817;-24
2023/01/31 02:26:57;;;;;;;20.00;5.70;;;;;;;0.52;78.16;97656.29;105765;1253;75346;-24
2023/01/31 02:29:47;;;;;;;15.80;8.20;;;;;;;0.27;78.86;97659.33;105331;1258;76105;-25
2023/01/31 02:32:41;;;;;;;11.70;6.70;;;;;;;0.07;79.26;97661.57;105521;1253;73896;-25
2023/01/31 02:35:19;;;;;;;10.20;6.10;;;;;;;-0.07;79.30;97657.77;105390;1253;61231;-24
2023/01/31 02:38:47;;;;;;;10.00;5.40;;;;;;;-0.10;79.89;97662.24;105341;1253;61047;-24
2023/01/31 02:41:19;;;;;;;8.20;5.00;;;;;;;0.80;78.61;97666.15;105178;1260;75399;-25
2023/01/31 02:44:58;;;;;;;10.10;6.00;;;;;;;1.00;77.65;97663.98;105003;1267;73738;-25
2023/01/31 02:47:44;;;;;;;11.00;6.50;;;;;;;0.65;77.50;97666.52;104423;1269;74231;-25
2023/01/31 02:50:28;;;;;;;9.50;5.70;;;;;;;0.44;78.20;97673.82;104598;1274;61185;-24
2023/01/31 02:53:08;;;;;;;8.70;5.50;;;;;;;0.20;78.77;97670.55;105075;1267;61688;-25
2023/01/31 02:56:16;;;;;;;11.90;7.00;;;;;;;-0.22;80.38;97669.26;105246;1265;74508;-25
2023/01/31 02:59:07;;;;;;;9.50;5.80;;;;;;;0.13;80.59;97671.63;105205;1260;74824;-24
2023/01/31 03:01:39;;;;;;;6.00;4.40;;;;;;;1.04;78.86;97663.21;104949;1261;72948;-25
2023/01/31 03:04:09;;;;;;;8.90;5.30;;;;;;;1.16;77.16;97663.69;104784;1262;61939;-25
2023/01/31 03:06:53;;;;;;;10.40;6.40;;;;;;;1.05;77.14;97673.11;104858;1260;61228;-25
2023/01/31 03:09:36;;;;;;;;;;;;;;;0.64;77.53;97675.02;104905;1266;75347;-25
2023/01/31 03:12:40;;;;;;;9.40;5.60;;;;;;;0.40;78.30;97680.89;105079;1260;75623;-24
2023/01/31 03:15:12;;;;;;;9.20;5.50;;;;;;;0.12;78.98;97679.90;105528;1258;73174;-24
2023/01/31 03:17:44;;;;;;;8.70;4.90;;;;;;;-0.08;79.13;97684.63;105334;1253;61109;-25
2023/01/31 03:20:22;;;;;;;9.20;5.00;;;;;;;0.05;79.85;97687.81;105402;1258;61177;-24
2023/01/31 03:22:59;;;;;;;7.10;5.30;;;;;;;0.71;78.95;97688.91;105388;1253;73077;-24
2023/01/31 03:25:31;;;;;;;9.10;6.40;;;;;;;0.88;77.93;97686.80;105342;1253;75604;-24
2023/01/31 03:28:02;;;;;;;9.10;5.50;;;;;;;0.65;78.05;97690.84;105560;1261;74325;-25
2023/01/31 03:30:37;;;;;;;8.90;5.00;;;;;;;0.37;78.76;97689.13;105302;1261;61338;-24
2023/01/31 03:33:16;;;;;;;7.10;5.00;;;;;;;0.05;79.92;97693.23;105419;1258;61703;-25
2023/01/31 03:35:56;;;;;;;10.90;6.90;;;;;;;-0.14;80.61;97691.47;105472;1253;75149;-24
2023/01/31 03:38:26;;;;;;;10.20;5.30;;;;;;;-0.04;80.41;97691.59;105446;1261;75511;-25
2023/01/31 03:41:11;;;;;;;9.50;5.30;;;;;;;0.58;79.64;97692.60;105466;1258;74180;-25
2023/01/31 03:44:03;;;;;;;11.50;7.20;;;;;;;0.82;78.30;97686.89;105583;1259;61884;-24
2023/01/31 03:46:53;;;;;;;11.50;4.70;;;;;;;0.78;78.10;97688.30;105595;1253;61116;-24
2023/01/31 03:49:21;;;;;;;9.30;5.50;;;;;;;0.46;78.61;97689.92;105413;1258;74514;-24
2023/01/31 03:51:53;;;;;;;11.50;5.80;;;;;;;0.23;79.01;97688.77;105375;1253;74843;-24
2023/01/31 03:54:28;;;;;;;8.70;5.30;;;;;;;0.00;79.60;97687.92;105189;1254;73862;-24
2023/01/31 03:57:03;;;;;;;7.00;4.50;;;;;;;-0.15;80.17;97685.55;105270;1255;62428;-24
2023/01/31 03:59:34;;;;;;;7.00;5.40;;;;;;;0.37;80.22;97693.23;105276;1260;61791;-25
2023/01/31 04:02:06;;;;;;;8.90;5.30;;;;;;;0.86;78.59;97695.49;105284;1253;75347;-25
2023/01/31 04:04:41;;;;;;;9.10;5.40;;;;;;;0.88;78.04;97692.66;105227;1253;75849;-24
2023/01/31 04:07:09;;;;;;;9.40;4.90;;;;;;;0.69;78.14;97694.17;105392;1253;73050;-25
2023/01/31 04:09:39;;;;;;;10.90;6.70;;;;;;;0.36;78.84;97695.84;105258;1253;61290;-25
2023/01/31 04:12:08;;;;;;;8.10;4.30;;;;;;;0.19;79.19;97697.91;105284;1260;61977;-24
2023/01/31 04:14:37;;;;;;;10.30;6.20;;;;;;;-0.09;80.34;97693.61;105379;1259;75644;-24
2023/01/31 04:17:05;;;;;;;9.00;5.00;;;;;;;0.08;80.63;97699.23;105493;1253;75214;-24
2023/01/31 04:19:34;;;;;;;8.90;5.40;;;;;;;0.80;79.46;97698.61;105588;1254;74178;-24
2023/01/31 04:22:03;;;;;;;9.10;5.20;;;;;;;1.10;78.12;97705.27;105545;1253;61161;-25
2023/01/31 04:24:31;;;;;;;8.30;5.50;;;;;;;1.02;77.83;97702.86;105374;1259;61836;-24
2023/01/31 04:27:00;;;;;;;10.70;5.70;;;;;;;0.77;77.94;97700.34;105517;1253;75298;-24
2023/01/31 04:29:29;;;;;;;8.90;5.90;;;;;;;0.55;78.34;97703.07;105382;1254;75651;-24
2023/01/31 04:31:57;;;;;;;11.60;6.80;;;;;;;0.33;78.72;97702.88;105356;1253;74212;-24
2023/01/31 04:34:26;;;;;;;8.80;5.30;;;;;;;0.11;79.21;97701.77;105738;1254;61086;-24
2023/01/31 04:36:55;;;;;;;8.00;4.20;;;;;;;-0.03;79.67;97702.80;105490;1258;61095;-25
2023/01/31 04:39:23;;;;;;;8.00;5.80;;;;;;;0.46;79.79;97705.66;105529;1258;75019;-24
2023/01/31 04:41:53;;;;;;;8.50;5.00;;;;;;;1.04;78.36;97704.77;105591;1260;75632;-24
2023/01/31 04:44:21;;;;;;;8.60;4.80;;;;;;;1.10;77.55;97707.48;105520;1253;74225;-24
2023/01/31 04:46:50;;;;;;;10.30;5.80;;;;;;;0.93;77.64;97706.84;105537;1253;61866;-24
2023/01/31 04:49:19;;;;;;;9.60;5.40;;;;;;;0.67;77.97;97712.20;105459;1258;61172;-25
2023/01/31 04:51:47;;;;;;;11.30;5.00;;;;;;;0.45;78.60;97711.19;105619;1256;75106;-24
2023/01/31 04:54:16;;;;;;;11.10;6.40;;;;;;;0.27;79.10;97715.54;105464;1259;75837;-24
2023/01/31 04:56:44;;;;;;;5.80;4.30;;;;;;;0.11;79.42;97711.14;105671;1254;74238;-24
2023/01/31 04:59:13;;;;;;;8.70;5.30;;;;;;;0.54;79.55;97711.45;105754;1253;61047;-24
2023/01/31 05:01:42;;;;;;;9.40;6.40;;;;;;;1.04;78.28;97713.69;105660;1259;61645;-24
2023/01/31 05:04:11;;;;;;;12.10;5.70;;;;;;;1.08;77.51;97723.16;105648;1253;75285;-25
2023/01/31 05:06:41;;;;;;;10.00;6.30;;;;;;;0.90;77.50;97724.66;105590;1258;76304;-24
2023/01/31 05:09:10;;;;;;;9.30;6.10;;;;;;;0.63;77.76;97737.74;105499;1254;74265;-25
2023/01/31 05:11:38;;;;;;;6.20;4.30;;;;;;;0.42;78.55;97742.77;105538;1258;61415;-24
2023/01/31 05:14:08;;;;;;;11.10;6.80;;;;;;;0.21;79.01;97742.52;105636;1256;61949;-24
2023/01/31 05:16:37;;;;;;;7.90;4.30;;;;;;;0.06;79.65;97744.58;105481;1258;75376;-24
2023/01/31 05:19:06;;;;;;;9.00;5.50;;;;;;;0.58;79.59;97743.30;105380;1257;74644;-24
2023/01/31 05:21:53;;;;;;;9.40;6.40;;;;;;;1.16;78.09;97744.02;105724;1259;74159;-25
2023/01/31 05:24:23;;;;;;;10.10;5.50;;;;;;;1.19;77.34;97744.52;105607;1253;62297;-24
2023/01/31 05:26:55;;;;;;;8.90;5.50;;;;;;;1.02;77.40;97748.17;105535;1259;61076;-25
2023/01/31 05:29:28;;;;;;;9.30;5.60;;;;;;;0.76;77.82;97752.16;105725;1259;75336;-24
2023/01/31 05:31:58;;;;;;;9.60;5.20;;;;;;;0.50;78.27;97754.92;105680;1261;75590;-24
2023/01/31 05:34:29;;;;;;;12.80;7.20;;;;;;;0.30;78.87;97758.19;105664;1259;72879;-25
2023/01/31 05:36:58;;;;;;;8.30;4.40;;;;;;;0.12;79.84;97754.82;105689;1259;62383;-24
2023/01/31 05:39:27;;;;;;;9.30;5.50;;;;;;;0.61;79.76;97762.45;105543;1256;61074;-25
2023/01/31 05:41:55;;;;;;;8.90;5.90;;;;;;;1.16;78.17;97757.34;105701;1254;73712;-25
2023/01/31 05:44:24;;;;;;;8.70;5.70;;;;;;;1.24;77.30;97759.42;105762;1258;75963;-25
2023/01/31 05:46:53;;;;;;;9.70;6.30;;;;;;;1.10;77.65;97765.08;105426;1259;74186;-24
2023/01/31 05:49:22;;;;;;;8.70;5.80;;;;;;;0.89;77.85;97764.50;105788;1258;61882;-24
2023/01/31 05:51:51;;;;;;;10.90;6.60;;;;;;;0.64;78.36;97764.66;105370;1259;61162;-26
2023/01/31 05:54:19;;;;;;;9.20;6.70;;;;;;;0.44;78.93;97762.83;105538;1253;75713;-26
2023/01/31 05:56:49;;;;;;;11.90;7.30;;;;;;;0.23;79.27;97763.04;105364;1253;74638;-25
2023/01/31 05:59:17;;;;;;;10.20;5.50;;;;;;;0.15;80.20;97760.93;105619;1257;74230;-24
2023/01/31 06:01:46;;;;;;;7.40;4.30;;;;;;;0.83;79.42;97764.89;105782;1259;61182;-24
2023/01/31 06:04:15;;;;;;;9.70;6.30;;;;;;;1.28;77.99;97769.94;105523;1259;62137;-25
2023/01/31 06:06:44;;;;;;;11.00;6.70;;;;;;;1.31;77.29;97773.88;105362;1259;75376;-25
2023/01/31 06:09:13;;;;;;;9.80;5.70;;;;;;;1.10;77.44;97777.90;105499;1258;75267;-25
2023/01/31 06:11:42;;;;;;;9.20;6.20;;;;;;;0.83;78.10;97782.14;105554;1259;73952;-24
2023/01/31 06:14:12;;;;;;;10.30;6.70;;;;;;;0.56;78.97;97781.21;105471;1258;61084;-24
2023/01/31 06:16:40;;;;;;;9.70;6.20;;;;;;;0.34;79.81;97779.63;105391;1254;61856;-24
2023/01/31 06:19:09;;;;;;;9.30;5.40;;;;;;;0.17;80.87;97781.11;105545;1257;75392;-25
2023/01/31 06:21:38;;;;;;;12.40;5.90;;;;;;;0.56;80.76;97787.84;105681;1259;75851;-25
2023/01/31 06:24:07;;;;;;;13.30;6.30;;;;;;;1.05;79.08;97788.34;105585;1259;73166;-25
2023/01/31 06:26:36;;;;;;;9.40;6.40;;;;;;;1.08;78.32;97792.88;105599;1254;62005;-24
2023/01/31 06:29:10;;;;;;;12.00;6.40;;;;;;;0.98;78.50;97791.81;105522;1259;61816;-24
2023/01/31 06:31:38;;;;;;;8.60;5.80;;;;;;;0.79;78.86;97795.74;105266;1260;75368;-25
2023/01/31 06:34:07;;;;;;;11.00;6.30;;;;;;;0.60;79.74;97796.70;105455;1258;75940;-25
2023/01/31 06:36:36;;;;;;;10.30;6.90;;;;;;;0.42;80.27;97798.92;105592;1254;74386;-24
2023/01/31 06:39:05;;;;;;;9.20;5.70;;;;;;;0.52;80.93;97801.95;105719;1260;62947;-24
2023/01/31 06:41:34;;;;;;;8.10;4.50;;;;;;;1.12;79.40;97806.33;105680;1259;61648;-25
2023/01/31 06:44:02;;;;;;;11.00;6.70;;;;;;;1.28;78.06;97800.53;105486;1254;74823;-25
2023/01/31 06:46:31;;;;;;;11.80;6.70;;;;;;;1.21;78.02;97803.88;105561;1258;75826;-25
2023/01/31 06:49:00;;;;;;;11.40;6.30;;;;;;;1.03;78.46;97802.80;105601;1255;74170;-24
2023/01/31 06:51:29;;;;;;;6.50;4.90;;;;;;;0.83;79.18;97800.62;105723;1255;61220;-25
2023/01/31 06:53:58;;;;;;;9.00;6.20;;;;;;;0.62;79.99;97804.45;105477;1259;61838;-24
2023/01/31 06:56:27;;;;;;;7.60;4.00;;;;;;;0.50;81.07;97806.36;105514;1260;75319;-25
2023/01/31 06:58:56;;;;;;;8.20;5.10;;;;;;;0.94;80.48;97809.35;105603;1258;76088;-25
2023/01/31 07:01:25;;;;;;;8.80;5.60;;;;;;;1.34;78.66;97808.88;105642;1258;74205;-25
2023/01/31 07:03:54;;;;;;;8.80;6.00;;;;;;;1.30;78.29;97815.64;105383;1254;61113;-25
2023/01/31 07:06:22;;;;;;;9.20;6.00;;;;;;;1.14;78.78;97812.38;105590;1260;61900;-25
2023/01/31 07:08:52;;;;;;;8.30;5.90;;;;;;;0.94;79.55;97812.88;105513;1254;75364;-25
2023/01/31 07:11:21;;;;;;;7.70;5.10;;;;;;;0.72;80.32;97816.31;105641;1268;75813;-25
2023/01/31 07:13:49;;;;;;;11.30;5.50;;;;;;;0.76;80.84;97816.39;105448;1259;74197;-25
2023/01/31 07:16:21;;;;;;;11.40;5.90;;;;;;;1.26;79.52;97813.85;105485;1254;61974;-25
2023/01/31 07:18:53;;;;;;;11.00;6.90;;;;;;;1.51;78.17;97814.83;105399;1268;61594;-25
2023/01/31 07:21:22;;;;;;;7.70;5.60;;;;;;;1.33;78.36;97816.63;105269;1261;75302;-25
2023/01/31 07:23:51;;;;;;;7.70;5.30;;;;;;;1.22;78.72;97814.63;105499;1260;75791;-25
2023/01/31 07:26:20;;;;;;;11.40;6.20;;;;;;;1.06;79.11;97819.69;105412;1258;74002;-24
2023/01/31 07:28:49;;;;;;;10.80;6.30;;;;;;;0.94;79.32;97820.91;105664;1259;61018;-25
2023/01/31 07:31:18;;;;;;;8.10;5.00;;;;;;;0.91;79.84;97823.71;105425;1261;61529;-25
2023/01/31 07:33:46;;;;;;;8.30;5.20;;;;;;;1.44;79.14;97823.97;105528;1260;74138;-25
2023/01/31 07:36:18;;;;;;;10.40;5.70;;;;;;;2.00;77.11;97823.69;105237;1260;75876;-25
2023/01/31 07:38:47;;;;;;;9.40;5.80;;;;;;;2.09;76.27;97826.51;105586;1257;74499;-25
2023/01/31 07:41:16;;;;;;;11.30;6.50;;;;;;;2.02;75.99;97829.85;105616;1255;61106;-25
2023/01/31 07:43:45;;;;;;;11.80;7.00;;;;;;;1.87;76.13;97833.90;105709;1264;61782;-25
2023/01/31 07:46:13;;;;;;;11.50;7.00;;;;;;;1.69;76.59;97841.59;105670;1258;74308;-25
2023/01/31 07:48:42;;;;;;;9.30;6.60;;;;;;;1.46;77.27;97844.07;105761;1259;74766;-25
2023/01/31 07:51:11;;;;;;;10.30;6.00;;;;;;;1.30;77.79;97844.76;105633;1254;72959;-25
2023/01/31 07:53:42;;;;;;;8.90;5.90;;;;;;;1.39;78.13;97847.41;105458;1258;61217;-25
2023/01/31 07:56:13;;;;;;;9.60;6.10;;;;;;;1.85;76.89;97851.66;105634;1260;61144;-25
2023/01/31 07:58:42;;;;;;;8.10;5.80;;;;;;;1.91;76.06;97850.93;105266;1260;75022;-25
2023/01/31 08:04:06;;;;;;;5.50;4.50;;;;;;;1.48;77.12;97852.67;105282;1259;74231;-27
2023/01/31 08:06:49;;;;;;;8.10;4.40;;;;;;;1.25;78.29;97858.67;105270;1260;61099;-25
2023/01/31 08:09:18;;;;;;;6.10;4.30;;;;;;;1.04;79.07;97856.05;105244;1269;61820;-25
2023/01/31 08:11:49;;;;;;;9.60;6.20;;;;;;;1.21;79.17;97867.50;105481;1257;75137;-25
2023/01/31 08:14:22;;;;;;;8.10;5.50;;;;;;;1.66;77.51;97873.27;105554;1258;75791;-25
2023/01/31 08:16:51;;;;;;;11.50;6.30;;;;;;;1.75;76.69;97875.81;105416;1253;74220;-25
2023/01/31 08:19:20;;;;;;;11.40;5.90;;;;;;;1.50;77.10;97882.14;105680;1254;61112;-25
2023/01/31 08:21:49;;;;;;;8.20;4.80;;;;;;;1.36;78.01;97879.05;105590;1254;61051;-25
2023/01/31 08:24:18;;;;;;;8.40;5.40;;;;;;;1.32;78.20;97883.45;105669;1259;75391;-25
2023/01/31 08:26:46;;;;;;;7.60;4.90;;;;;;;1.25;78.49;97880.23;105595;1258;75867;-25
2023/01/31 08:29:15;;;;;;;8.60;5.10;;;;;;;1.24;78.96;97885.42;105521;1258;73879;-25
2023/01/31 08:31:44;;;;;;;10.00;5.20;;;;;;;1.78;77.67;97889.80;105615;1255;61107;-25
2023/01/31 08:34:13;;;;;;;6.90;3.90;;;;;;;1.98;76.26;97886.44;105558;1254;61511;-26
2023/01/31 08:36:41;;;;;;;7.90;5.20;;;;;;;2.04;75.48;97881.93;105456;1258;75279;-27
2023/01/31 08:39:10;;;;;;;7.70;4.80;;;;;;;1.95;75.92;97884.44;105474;1258;74866;-26
2023/01/31 08:41:39;;;;;;;8.80;4.90;;;;;;;1.85;76.01;97889.48;105397;1260;73910;-23
2023/01/31 08:44:08;;;;;;;8.10;5.30;;;;;;;1.70;76.63;97894.55;105436;1258;61462;-25
2023/01/31 08:46:36;;;;;;;12.70;4.70;;;;;;;1.53;77.23;97894.06;105502;1257;61698;-26
2023/01/31 08:49:05;;;;;;;10.70;4.20;;;;;;;1.56;77.69;97899.00;105593;1257;75517;-26
2023/01/31 08:51:35;;;;;;;6.00;4.00;;;;;;;2.24;75.78;97896.55;105493;1258;75541;-25
2023/01/31 08:54:03;;;;;;;7.10;4.40;;;;;;;2.47;74.31;97898.34;105477;1257;72681;-26
2023/01/31 08:56:32;;;;;;;9.10;4.80;;;;;;;2.44;74.15;97903.36;105514;1255;61358;-26
2023/01/31 08:59:01;;;;;;;7.30;4.40;;;;;;;2.13;75.27;97898.36;105488;1258;61870;-25
2023/01/31 09:01:31;;;;;;;6.50;4.30;;;;;;;1.75;77.27;97902.62;105526;1254;75388;-26
2023/01/31 09:04:00;;;;;;;10.90;5.70;;;;;;;1.50;78.65;97908.96;105523;1255;75574;-25
2023/01/31 09:06:29;;;;;;;9.60;3.60;;;;;;;1.33;79.58;97912.60;105525;1259;73913;-25
2023/01/31 09:08:58;;;;;;;9.30;5.50;;;;;;;1.58;79.53;97909.36;105362;1255;61077;-26
2023/01/31 09:11:29;;;;;;;6.90;3.60;;;;;;;1.95;77.91;97909.90;105523;1257;61712;-25
2023/01/31 09:13:58;;;;;;;8.30;4.80;;;;;;;2.05;77.13;97907.58;105483;1259;75266;-26
2023/01/31 09:16:27;;;;;;;7.00;5.00;;;;;;;1.97;77.20;97900.07;105542;1254;75599;-26
2023/01/31 09:18:56;;;;;;;7.90;5.10;;;;;;;1.81;77.87;97909.61;105651;1254;74239;-26
2023/01/31 09:21:25;;;;;;;8.20;5.70;;;;;;;1.57;78.70;97908.41;105500;1255;61093;-26
2023/01/31 09:23:56;;;;;;;7.30;4.80;;;;;;;1.43;79.25;97911.44;105394;1260;61840;-26
2023/01/31 09:26:25;;;;;;;11.30;5.60;;;;;;;1.51;79.65;97909.12;105237;1260;75461;-26
2023/01/31 09:28:54;;;;;;;8.80;4.00;;;;;;;1.87;78.52;97914.72;105622;1254;75991;-26
2023/01/31 09:31:23;;;;;;;5.80;3.90;;;;;;;2.00;77.47;97913.88;105553;1254;74145;-25
2023/01/31 09:33:53;;;;;;;9.80;4.90;;;;;;;1.93;77.66;97915.72;105464;1254;62492;-25
2023/01/31 09:36:23;;;;;;;7.60;4.20;;;;;;;1.77;77.93;97921.20;105463;1258;61172;-25
2023/01/31 09:38:54;;;;;;;5.60;4.20;;;;;;;1.57;78.67;97913.34;105550;1266;74937;-25
2023/01/31 09:41:26;;;;;;;7.70;4.70;;;;;;;1.42;79.56;97919.58;105524;1254;74962;-25
2023/01/31 09:44:03;;;;;;;4.90;3.60;;;;;;;1.64;79.30;97923.87;105377;1259;73069;-25
2023/01/31 09:46:44;;;;;;;6.80;4.60;;;;;;;2.08;77.41;97923.98;105395;1259;61181;-25
2023/01/31 09:49:20;;;;;;;8.40;5.40;;;;;;;1.97;77.33;97919.92;105246;1254;61193;-27
2023/01/31 09:51:53;;;;;;;8.20;4.70;;;;;;;1.85;77.88;97925.96;103991;1259;1700682;-25
2023/01/31 09:54:33;;;;;;;9.00;5.30;;;;;;;1.67;78.56;97927.22;105255;1255;74564;-26
2023/01/31 09:57:29;;;;;;;7.30;4.80;;;;;;;1.46;79.35;97927.19;105205;1254;73316;-26
2023/01/31 10:00:13;;;;;;;7.10;4.80;;;;;;;1.45;80.02;97924.34;105471;1258;62634;-26
2023/01/31 10:03:17;;;;;;;6.50;4.80;;;;;;;1.76;78.92;97922.94;105533;1255;60981;-25
2023/01/31 10:05:58;;;;;;;7.40;4.00;;;;;;;1.79;78.78;97922.56;105648;1258;75346;-25
2023/01/31 10:08:58;;;;;;;7.80;5.70;;;;;;;1.68;79.01;97921.91;105432;1262;75799;-25
2023/01/31 10:11:33;;;;;;;7.40;5.30;;;;;;;1.46;79.88;97926.48;105650;1257;74153;-25
2023/01/31 10:14:20;;;;;;;7.90;5.00;;;;;;;1.37;80.49;97925.88;105661;1254;61182;-25
2023/01/31 10:17:10;;;;;;;4.00;3.20;;;;;;;1.74;79.67;97929.58;105691;1260;61726;-25
2023/01/31 10:19:45;;;;;;;6.90;3.80;;;;;;;2.04;78.40;97933.00;105716;1254;75377;-25
2023/01/31 10:22:31;;;;;;;8.70;5.10;;;;;;;1.98;78.36;97930.48;105674;1261;76264;-26
2023/01/31 10:25:38;;;;;;;10.60;5.40;;;;;;;1.78;79.13;97934.08;105634;1256;74330;-26
2023/01/31 10:28:34;;;;;;;8.00;5.50;;;;;;;1.60;80.12;97934.70;105554;1254;61114;-26
2023/01/31 10:31:30;;;;;;;8.40;4.80;;;;;;;1.42;81.15;97925.91;105681;1254;62093;-26
2023/01/31 10:34:00;;;;;;;7.80;5.20;;;;;;;1.87;80.19;97926.36;105674;1254;75384;-25
2023/01/31 10:36:50;;;;;;;6.40;3.80;;;;;;;2.13;79.00;97920.60;105673;1254;74811;-25
2023/01/31 10:39:32;;;;;;;4.70;3.90;;;;;;;2.12;78.74;97920.31;105643;1254;73904;-25
2023/01/31 10:42:01;;;;;;;8.30;5.20;;;;;;;1.89;79.32;97922.80;105692;1255;61067;-25
2023/01/31 10:44:51;;;;;;;8.70;5.00;;;;;;;1.70;79.93;97922.64;105737;1260;61576;-25
2023/01/31 10:47:23;;;;;;;8.00;4.70;;;;;;;1.62;80.45;97917.80;105560;1260;74337;-25
2023/01/31 10:49:52;;;;;;;6.90;4.80;;;;;;;1.89;79.82;97918.20;105364;1260;75808;-25
2023/01/31 10:52:30;;;;;;;9.20;5.50;;;;;;;2.21;78.36;97916.98;105649;1254;73815;-25
2023/01/31 10:55:14;;;;;;;7.40;3.50;;;;;;;2.20;78.16;97917.91;105599;1254;61861;-25
2023/01/31 10:57:42;;;;;;;8.70;6.10;;;;;;;1.94;78.75;97916.29;105606;1258;62007;-25
2023/01/31 11:00:18;;;;;;;6.00;3.90;;;;;;;1.75;79.54;97918.23;105494;1258;74370;-25
2023/01/31 11:02:47;;;;;;;8.90;4.40;;;;;;;1.67;80.54;97920.27;105416;1254;75834;-25
2023/01/31 11:05:19;;;;;;;7.90;3.90;;;;;;;1.74;80.46;97915.00;105708;1253;74437;-25
2023/01/31 11:07:48;;;;;;;8.30;4.20;;;;;;;2.26;78.73;97915.28;105676;1260;61168;-25
2023/01/31 11:10:25;;;;;;;7.30;4.10;;;;;;;2.48;77.61;97913.34;105688;1257;61886;-25
2023/01/31 11:12:53;;;;;;;8.30;5.30;;;;;;;2.39;77.51;97912.25;105712;1255;74428;-25
2023/01/31 11:17:43;;;;;;;8.50;4.90;;;;;;;2.05;78.64;97913.73;102709;1292;600991;-24
2023/01/31 11:20:43;;;;;;;8.30;4.20;;;;;;;1.87;79.12;97915.92;105103;1265;61263;-24
2023/01/31 11:23:16;;;;;;;4.40;3.30;;;;;;;2.03;79.30;97920.39;105097;1266;61155;-24
2023/01/31 11:25:49;;;;;;;11.90;5.00;;;;;;;2.46;77.00;97914.15;104792;1272;73802;-25
2023/01/31 11:28:39;;;;;;;4.70;3.10;;;;;;;2.43;76.82;97916.41;104797;1267;75546;-24
2023/01/31 11:31:18;;;;;;;6.40;4.80;;;;;;;2.16;77.75;97915.77;103545;1268;1870458;-24
2023/01/31 11:34:03;;;;;;;8.40;4.10;;;;;;;2.01;78.74;97923.10;104837;1271;61183;-25
2023/01/31 11:36:40;;;;;;;6.60;4.20;;;;;;;1.78;79.32;97917.03;105101;1263;61173;-24
2023/01/31 11:39:32;;;;;;;10.50;4.10;;;;;;;1.69;79.82;97914.29;104996;1263;73663;-24
2023/01/31 11:42:05;;;;;;;5.70;4.40;;;;;;;2.33;78.42;97910.73;104907;1263;75817;-25
2023/01/31 11:44:34;;;;;;;9.60;4.90;;;;;;;2.54;76.49;97906.65;104835;1271;74141;-25
2023/01/31 11:47:03;;;;;;;9.00;4.20;;;;;;;2.42;76.79;97908.27;105144;1265;61770;-25
2023/01/31 11:49:38;;;;;;;10.70;4.90;;;;;;;2.30;77.31;97912.67;105200;1268;61185;-25
2023/01/31 11:52:17;;;;;;;4.60;3.30;;;;;;;2.09;78.51;97915.23;104896;1263;73673;-25
2023/01/31 11:54:50;;;;;;;4.10;2.90;;;;;;;1.94;78.85;97919.05;104784;1269;75885;-25
2023/01/31 11:57:35;;;;;;;11.40;5.50;;;;;;;2.03;79.13;97922.93;104755;1271;74509;-25
2023/01/31 12:00:07;;;;;;;9.80;4.30;;;;;;;2.42;77.54;97923.84;104821;1271;61707;-25
2023/01/31 12:02:39;;;;;;;7.60;3.90;;;;;;;2.59;76.74;97919.64;104899;1268;61843;-26
2023/01/31 12:05:12;;;;;;;8.70;4.50;;;;;;;2.25;77.45;97922.55;105093;1266;74557;-25